Knife Falls, Minnesota
Current Conditions -  °F | °C
As of 11:37 PM on Monday 26 Jan 2015 (Local Time) from KCOQ Reporting Station
Overcast Overcast  
Wind Chill: 18°   Ceiling: 1700
Heat Index: 28°   Visibility: 10mi
Dew Point: 21°   Wind: 12mph
Humidity: 74%   Direction: 340°NNW
Pressure: 29.97"   Gusts: 17mph
Location:  46.7232°N, 92.5588°W
Report Text: KCOQ 270537Z AUTO 34010G15KT 10SM OVC017 M02/M06 A2997 RMK AO2
Loading
Personal Weather Stations






























Interactive Weather Map New forecast layout! Learn more

10-Day Weather Forecast

Advertisements
Track Severe Weather on mobile